Time;durP1;ratioP1;P1;durP2;ratioP2;P2;SDS_P1;SDS_P2;PMS_P1;PMS_P2;Temp;Humidity;BMP_temperature;BMP_pressure;BME280_temperature;BME280_humidity;BME280_pressure;Samples;Min_cycle;Max_cycle;Signal;HPM_P1;HPM_P2
2023/10/16 00:01:03;;;;;;;2.90;0.90;;;;;;;;;;4996575;28;20444;-61
2023/10/16 00:03:29;;;;;;;1.60;0.90;;;;;;;;;;4995356;28;20437;-61
2023/10/16 00:05:55;;;;;;;1.93;1.20;;;2.40;99.90;;;;;;5005464;28;20421;-61
2023/10/16 00:08:22;;;;;;;2.50;1.30;;;2.40;99.90;;;;;;5006674;28;20437;-62
2023/10/16 00:10:57;;;;;;;2.37;1.43;;;2.30;99.90;;;;;;5006099;28;20429;-62
2023/10/16 00:13:27;;;;;;;3.20;1.07;;;2.30;99.90;;;;;;5011683;28;20433;-62
2023/10/16 00:15:57;;;;;;;1.93;1.10;;;2.30;99.90;;;;;;5021263;28;20511;-61
2023/10/16 00:18:24;;;;;;;2.60;1.37;;;2.20;99.90;;;;;;5019887;28;20526;-61
2023/10/16 00:20:52;;;;;;;1.87;1.10;;;2.20;99.90;;;;;;5016278;28;20785;-62
2023/10/16 00:23:18;;;;;;;2.80;1.63;;;2.10;99.90;;;;;;5013985;28;20437;-61
2023/10/16 00:25:44;;;;;;;3.30;1.80;;;2.10;99.90;;;;;;5014744;28;20441;-61
2023/10/16 00:28:11;;;;;;;2.40;1.47;;;2.10;99.90;;;;;;5014202;28;20519;-61
2023/10/16 00:30:38;;;;;;;2.50;1.20;;;2.10;99.90;;;;;;5014819;28;20435;-61
2023/10/16 00:33:08;;;;;;;4.40;1.37;;;2.20;99.90;;;;;;5013661;28;20450;-61
2023/10/16 00:35:34;;;;;;;2.90;1.30;;;2.10;99.90;;;;;;5014754;28;20460;-62
2023/10/16 00:38:02;;;;;;;4.60;1.50;;;2.10;99.90;;;;;;5013638;28;20433;-61
2023/10/16 00:40:33;;;;;;;5.60;1.27;;;2.00;99.90;;;;;;5014261;28;20182;-61
2023/10/16 00:43:11;;;;;;;1.90;1.40;;;2.00;99.90;;;;;;5014201;28;20465;-61
2023/10/16 00:45:46;;;;;;;2.20;1.33;;;2.00;99.90;;;;;;5014683;28;20447;-62
2023/10/16 00:48:18;;;;;;;1.80;1.20;;;2.00;99.90;;;;;;5013497;28;20499;-61
2023/10/16 00:50:49;;;;;;;2.13;1.23;;;1.90;99.90;;;;;;5019911;28;20484;-61
2023/10/16 00:53:20;;;;;;;3.63;1.03;;;1.90;99.90;;;;;;5018106;28;20437;-61
2023/10/16 00:55:47;;;;;;;2.03;1.00;;;;;;;;;;5012609;28;20425;-61
2023/10/16 00:58:12;;;;;;;2.03;1.10;;;2.00;99.90;;;;;;5013270;28;20560;-61
2023/10/16 01:00:39;;;;;;;2.70;1.40;;;2.00;99.90;;;;;;5014294;28;20880;-61
2023/10/16 01:03:05;;;;;;;3.30;1.40;;;1.90;99.90;;;;;;5012693;28;20210;-61
2023/10/16 01:05:33;;;;;;;2.47;1.33;;;1.90;99.90;;;;;;5014323;28;20436;-61
2023/10/16 01:08:04;;;;;;;2.67;1.60;;;1.90;99.90;;;;;;5013734;28;20441;-61
2023/10/16 01:10:32;;;;;;;3.50;1.30;;;1.90;99.90;;;;;;5013685;28;20440;-61
2023/10/16 01:12:58;;;;;;;2.20;1.10;;;1.90;99.90;;;;;;5013287;28;20936;-61
2023/10/16 01:15:25;;;;;;;2.27;0.93;;;1.90;99.90;;;;;;5012910;28;20811;-61
2023/10/16 01:17:52;;;;;;;4.07;0.90;;;1.90;99.90;;;;;;5012854;28;20427;-61
2023/10/16 01:20:18;;;;;;;2.30;0.70;;;1.80;99.90;;;;;;5013166;28;20429;-61
2023/10/16 01:22:45;;;;;;;2.03;1.03;;;1.70;99.90;;;;;;5013433;28;20945;-61
2023/10/16 01:25:11;;;;;;;15.27;1.33;;;1.70;99.90;;;;;;5015234;28;20429;-61
2023/10/16 01:27:40;;;;;;;1.87;0.87;;;1.70;99.90;;;;;;5014990;28;21063;-61
2023/10/16 01:30:06;;;;;;;2.00;0.90;;;1.80;99.90;;;;;;5011431;28;20433;-61
2023/10/16 01:32:32;;;;;;;2.33;1.27;;;1.80;99.90;;;;;;5006373;28;20478;-61
2023/10/16 01:35:00;;;;;;;2.10;1.00;;;1.80;99.90;;;;;;5011264;28;20434;-61
2023/10/16 01:37:26;;;;;;;2.27;1.00;;;1.80;99.90;;;;;;5015130;28;20182;-61
2023/10/16 01:40:11;;;;;;;5.47;1.30;;;;;;;;;;5007939;28;20422;-61
2023/10/16 01:42:37;;;;;;;1.80;1.10;;;;;;;;;;5010359;28;20214;-61
2023/10/16 01:45:04;;;;;;;4.17;1.50;;;1.70;99.90;;;;;;5009981;28;20424;-61
2023/10/16 01:47:30;;;;;;;3.97;1.23;;;1.70;99.90;;;;;;5018752;28;20788;-61
2023/10/16 01:49:58;;;;;;;2.83;1.37;;;;;;;;;;5012187;28;20417;-61
2023/10/16 01:52:25;;;;;;;12.93;2.83;;;1.80;99.90;;;;;;5013369;28;20422;-61
2023/10/16 01:54:53;;;;;;;6.17;3.07;;;;;;;;;;5019164;28;20422;-61
2023/10/16 01:57:20;;;;;;;5.43;2.73;;;1.90;99.90;;;;;;5028627;28;20471;-61
2023/10/16 01:59:51;;;;;;;3.83;2.33;;;2.00;99.90;;;;;;5009473;28;20429;-61
2023/10/16 02:02:17;;;;;;;2.20;1.30;;;;;;;;;;5006192;28;20492;-61
2023/10/16 02:04:43;;;;;;;10.30;1.77;;;;;;;;;;5000799;28;20469;-61
2023/10/16 02:07:11;;;;;;;4.70;1.40;;;2.00;99.90;;;;;;5009012;28;20484;-61
2023/10/16 02:09:38;;;;;;;3.50;1.80;;;2.00;99.90;;;;;;5005709;28;20421;-61
2023/10/16 02:12:16;;;;;;;3.70;1.77;;;1.90;99.90;;;;;;5003069;28;20424;-61
2023/10/16 02:14:45;;;;;;;3.60;1.67;;;1.90;99.90;;;;;;5006011;28;20425;-61
2023/10/16 02:17:14;;;;;;;3.70;1.50;;;1.70;99.90;;;;;;5006363;28;20446;-61
2023/10/16 02:19:44;;;;;;;4.33;1.43;;;1.60;99.90;;;;;;5003399;28;20413;-61
2023/10/16 02:22:11;;;;;;;2.90;1.30;;;1.50;99.90;;;;;;5005801;28;20547;-61
2023/10/16 02:24:37;;;;;;;3.77;1.53;;;1.50;99.90;;;;;;5009061;28;20425;-61
2023/10/16 02:27:09;;;;;;;6.00;1.17;;;1.40;99.90;;;;;;5004197;28;20417;-61
2023/10/16 02:29:37;;;;;;;9.93;1.50;;;1.40;99.90;;;;;;5013073;28;20464;-61
2023/10/16 02:32:03;;;;;;;2.07;1.47;;;1.40;99.90;;;;;;5029148;28;20427;-61
2023/10/16 02:34:33;;;;;;;1.70;0.90;;;1.50;99.90;;;;;;5021829;28;20947;-61
2023/10/16 02:37:00;;;;;;;1.70;0.93;;;1.40;99.90;;;;;;5029844;28;20455;-61
2023/10/16 02:39:35;;;;;;;3.17;1.10;;;1.40;99.90;;;;;;5019858;28;20421;-61
2023/10/16 02:42:11;;;;;;;11.40;1.50;;;1.40;99.90;;;;;;5028331;28;20533;-61
2023/10/16 02:44:42;;;;;;;6.10;0.93;;;1.40;99.90;;;;;;5019009;28;20472;-61
2023/10/16 02:47:12;;;;;;;1.63;1.03;;;1.30;99.90;;;;;;5028717;28;20397;-61
2023/10/16 02:49:41;;;;;;;2.07;1.10;;;1.20;99.90;;;;;;5017082;28;20437;-61
2023/10/16 02:52:09;;;;;;;6.27;1.70;;;1.20;99.90;;;;;;5028579;28;20416;-61
2023/10/16 02:54:35;;;;;;;1.67;0.80;;;1.20;99.90;;;;;;5019131;28;20429;-61
2023/10/16 02:57:00;;;;;;;11.30;1.47;;;1.20;99.90;;;;;;5018311;28;20203;-61
2023/10/16 02:59:26;;;;;;;1.60;0.77;;;1.20;99.90;;;;;;5016041;28;20230;-61
2023/10/16 03:01:56;;;;;;;1.60;1.00;;;1.30;99.90;;;;;;5020714;28;20552;-61
2023/10/16 03:04:23;;;;;;;3.67;1.33;;;1.30;99.90;;;;;;5017125;28;20827;-61
2023/10/16 03:06:53;;;;;;;2.67;1.10;;;1.40;99.90;;;;;;5018315;28;20460;-61
2023/10/16 03:09:31;;;;;;;2.80;1.23;;;1.40;99.90;;;;;;5019841;28;20447;-61
2023/10/16 03:12:08;;;;;;;5.10;1.60;;;1.30;99.90;;;;;;5017705;28;20465;-61
2023/10/16 03:14:57;;;;;;;2.30;1.00;;;1.30;99.90;;;;;;5018408;28;20527;-61
2023/10/16 03:17:25;;;;;;;4.50;1.37;;;1.30;99.90;;;;;;5021449;28;20435;-61
2023/10/16 03:19:54;;;;;;;5.93;1.43;;;1.20;99.90;;;;;;5021267;28;20999;-61
2023/10/16 03:22:21;;;;;;;2.40;1.07;;;1.10;99.90;;;;;;5022099;28;20594;-61
2023/10/16 03:24:47;;;;;;;2.47;1.20;;;1.10;99.90;;;;;;5022201;28;20931;-61
2023/10/16 03:27:37;;;;;;;2.70;1.03;;;1.20;99.90;;;;;;5022064;28;20508;-61
2023/10/16 03:30:00;;;;;;;1.60;0.80;;;1.20;99.90;;;;;;5022855;28;20425;-61
2023/10/16 03:32:25;;;;;;;2.07;1.17;;;1.10;99.90;;;;;;5019040;28;20505;-61
2023/10/16 03:34:52;;;;;;;5.63;1.47;;;1.00;99.90;;;;;;5014370;28;20191;-61
2023/10/16 03:37:18;;;;;;;2.50;1.57;;;1.10;99.90;;;;;;5014719;28;20190;-61
2023/10/16 03:39:46;;;;;;;5.23;1.50;;;1.10;99.90;;;;;;5010913;28;20425;-61
2023/10/16 03:42:12;;;;;;;3.10;1.10;;;1.10;99.90;;;;;;5011999;28;20491;-61
2023/10/16 03:44:41;;;;;;;2.70;1.40;;;1.10;99.90;;;;;;5008339;28;20983;-61
2023/10/16 03:47:07;;;;;;;4.60;1.97;;;1.10;99.90;;;;;;5004004;28;20175;-61
2023/10/16 03:49:33;;;;;;;11.50;2.17;;;1.10;99.90;;;;;;5004409;28;20520;-61
2023/10/16 03:52:00;;;;;;;5.80;2.67;;;1.00;99.90;;;;;;5004139;28;20802;-61
2023/10/16 03:54:35;;;;;;;6.43;3.07;;;1.10;99.90;;;;;;4999372;28;20179;-61
2023/10/16 03:57:01;;;;;;;10.40;3.40;;;1.00;99.90;;;;;;4993158;28;20594;-61
2023/10/16 03:59:30;;;;;;;11.47;4.10;;;1.10;99.90;;;;;;4988213;28;20439;-61
2023/10/16 04:02:04;;;;;;;9.13;4.20;;;1.10;99.90;;;;;;4989764;28;21278;-61
2023/10/16 04:04:29;;;;;;;8.73;4.53;;;1.00;99.90;;;;;;5002779;28;20431;-61
2023/10/16 04:06:56;;;;;;;7.90;3.60;;;1.00;99.90;;;;;;5000750;28;20509;-61
2023/10/16 04:09:29;;;;;;;9.13;3.60;;;1.00;99.90;;;;;;4996705;28;20317;-61
2023/10/16 04:11:55;;;;;;;6.80;3.40;;;1.10;99.90;;;;;;4991966;28;20429;-61
2023/10/16 04:14:44;;;;;;;4.27;3.10;;;1.00;99.90;;;;;;4990533;28;20515;-61
2023/10/16 04:17:11;;;;;;;4.90;2.73;;;1.00;99.90;;;;;;4999887;28;21101;-61
2023/10/16 04:19:47;;;;;;;5.40;2.20;;;0.90;99.90;;;;;;5000318;28;20429;-61
2023/10/16 04:22:16;;;;;;;7.20;2.57;;;0.90;99.90;;;;;;4998941;28;20465;-61
2023/10/16 04:24:45;;;;;;;5.97;2.57;;;0.90;99.90;;;;;;4996122;28;20544;-61
2023/10/16 04:29:46;;;;;;;5.40;2.43;;;0.90;99.90;;;;;;5004305;28;20446;-61
2023/10/16 04:32:37;;;;;;;5.80;2.07;;;0.90;99.90;;;;;;5004638;28;20434;-61
2023/10/16 04:35:28;;;;;;;6.67;1.90;;;0.80;99.90;;;;;;5004336;28;20422;-61
2023/10/16 04:37:54;;;;;;;3.47;2.20;;;0.80;99.90;;;;;;5000631;28;20528;-61
2023/10/16 04:43:12;;;;;;;2.97;1.40;;;0.80;99.90;;;;;;5003847;28;20829;-61
2023/10/16 04:48:58;;;;;;;6.00;1.93;;;0.80;99.90;;;;;;4995025;28;20559;-61
2023/10/16 04:51:17;;;;;;;1.87;1.50;;;0.80;99.90;;;;;;4992766;28;20477;-61
2023/10/16 04:53:59;;;;;;;3.37;1.80;;;0.70;99.90;;;;;;4995130;28;20464;-61
2023/10/16 04:59:37;;;;;;;2.70;1.37;;;0.70;99.90;;;;;;4995073;28;20453;-61
2023/10/16 05:02:15;;;;;;;3.57;1.83;;;0.70;99.90;;;;;;4993148;28;20506;-61
2023/10/16 05:04:59;;;;;;;2.77;1.60;;;0.70;99.90;;;;;;4994119;28;20417;-61
2023/10/16 05:07:38;;;;;;;6.90;2.33;;;0.70;99.90;;;;;;5000181;28;20425;-61
2023/10/16 05:10:22;;;;;;;10.30;3.50;;;0.70;99.90;;;;;;5006110;28;20522;-61
2023/10/16 05:15:51;;;;;;;17.90;4.67;;;0.60;99.90;;;;;;5011241;28;20463;-61
2023/10/16 05:18:42;;;;;;;6.47;3.70;;;0.70;99.90;;;;;;5013160;28;20465;-61
2023/10/16 05:21:51;;;;;;;14.00;4.30;;;0.70;99.90;;;;;;5013602;28;20433;-61
2023/10/16 06:16:00;;;;;;;4.20;2.60;;;0.70;99.90;;;;;;5020828;28;20440;-61
2023/10/16 06:18:30;;;;;;;5.03;2.37;;;0.80;99.90;;;;;;5017137;28;20449;-61
2023/10/16 06:21:00;;;;;;;9.13;3.13;;;0.70;99.90;;;;;;5017746;28;20182;-61
2023/10/16 06:23:28;;;;;;;2.97;1.90;;;0.70;99.90;;;;;;5017063;28;20491;-61
2023/10/16 06:25:54;;;;;;;5.93;2.90;;;0.90;99.90;;;;;;5020240;28;20437;-61
2023/10/16 06:28:21;;;;;;;4.50;2.47;;;0.90;99.90;;;;;;5018755;28;20801;-62
2023/10/16 06:30:47;;;;;;;3.93;2.63;;;0.90;99.90;;;;;;5018302;28;20491;-61
2023/10/16 06:33:14;;;;;;;3.50;2.40;;;1.00;99.90;;;;;;5017763;28;20471;-61
2023/10/16 06:35:41;;;;;;;9.40;2.90;;;1.00;99.90;;;;;;5016220;28;20448;-61
2023/10/16 06:38:11;;;;;;;11.97;6.00;;;1.10;99.90;;;;;;5017802;28;20486;-61
2023/10/16 06:40:40;;;;;;;9.60;4.90;;;1.20;99.90;;;;;;5020099;28;20559;-61
2023/10/16 06:43:16;;;;;;;6.50;4.00;;;1.30;99.90;;;;;;5017566;28;20479;-61
2023/10/16 06:45:49;;;;;;;7.00;3.63;;;1.30;99.90;;;;;;5019577;28;20524;-61
2023/10/16 06:48:15;;;;;;;7.20;3.53;;;1.40;99.90;;;;;;5018718;28;21604;-61
2023/10/16 06:50:53;;;;;;;4.33;2.70;;;1.50;99.90;;;;;;5022139;28;20437;-61
2023/10/16 06:53:23;;;;;;;4.73;2.53;;;1.50;99.90;;;;;;5022972;28;20437;-61
2023/10/16 06:55:52;;;;;;;8.37;2.57;;;1.70;99.90;;;;;;5023333;28;20440;-63
2023/10/16 06:58:20;;;;;;;13.50;3.07;;;1.70;99.90;;;;;;5023586;28;20457;-62
2023/10/16 07:00:49;;;;;;;3.70;2.60;;;1.60;99.90;;;;;;5022712;28;20449;-63
2023/10/16 07:03:14;;;;;;;6.60;2.97;;;1.60;99.90;;;;;;5020219;28;20508;-61
2023/10/16 07:05:43;;;;;;;9.00;2.70;;;1.70;99.90;;;;;;5021737;28;20599;-61
2023/10/16 07:08:10;;;;;;;8.83;3.23;;;1.80;99.90;;;;;;5019473;28;20213;-61
2023/10/16 07:10:40;;;;;;;6.17;3.53;;;1.80;99.90;;;;;;4996779;28;20433;-62
2023/10/16 07:13:07;;;;;;;6.50;3.87;;;2.00;99.90;;;;;;4994531;28;20448;-61
2023/10/16 07:15:33;;;;;;;9.73;4.70;;;2.10;99.90;;;;;;4992937;28;20440;-61
2023/10/16 07:18:04;;;;;;;4.80;2.90;;;2.20;99.90;;;;;;4993106;28;20456;-62
2023/10/16 07:20:35;;;;;;;5.47;3.30;;;2.40;99.90;;;;;;4993072;28;20269;-62
2023/10/16 07:23:00;;;;;;;6.33;3.23;;;2.40;99.90;;;;;;4993007;28;20520;-62
2023/10/16 07:28:29;;;;;;;6.47;3.70;;;2.80;99.90;;;;;;4951631;28;20651;-63
2023/10/16 07:31:10;;;;;;;6.87;3.00;;;3.00;99.90;;;;;;4985594;28;20438;-62
2023/10/16 07:33:36;;;;;;;8.80;4.60;;;3.10;99.90;;;;;;4984157;28;20429;-62
2023/10/16 07:36:10;;;;;;;8.30;4.30;;;3.70;99.90;;;;;;4980604;28;20429;-62
2023/10/16 07:38:38;;;;;;;6.20;3.03;;;4.20;99.90;;;;;;4984387;28;20885;-62
2023/10/16 07:41:04;;;;;;;6.67;3.30;;;4.20;99.90;;;;;;5013681;28;20435;-62
2023/10/16 07:43:34;;;;;;;8.00;4.30;;;4.40;99.90;;;;;;5012259;28;20488;-62
2023/10/16 07:48:44;;;;;;;9.00;3.87;;;4.60;99.90;;;;;;5011659;28;20445;-62
2023/10/16 07:51:11;;;;;;;9.60;4.27;;;4.60;99.90;;;;;;5012909;28;21025;-62
2023/10/16 07:53:37;;;;;;;9.10;4.07;;;5.00;99.90;;;;;;5013267;28;20772;-62
2023/10/16 07:56:19;;;;;;;8.80;2.37;;;5.30;99.90;;;;;;5010485;28;20460;-62
2023/10/16 07:58:48;;;;;;;6.33;2.80;;;5.30;99.90;;;;;;5012161;28;20465;-62
2023/10/16 08:01:17;;;;;;;4.77;2.40;;;5.40;99.90;;;;;;5010885;28;20433;-62
2023/10/16 08:03:46;;;;;;;2.70;1.63;;;5.50;99.90;;;;;;5016315;28;20551;-62
2023/10/16 08:06:17;;;;;;;7.27;2.40;;;5.80;99.90;;;;;;5021240;28;20429;-62
2023/10/16 08:08:49;;;;;;;22.13;2.90;;;6.10;99.90;;;;;;5019955;28;20455;-62
2023/10/16 08:11:21;;;;;;;4.00;2.30;;;6.30;99.90;;;;;;5022226;28;20778;-62
2023/10/16 08:13:50;;;;;;;9.13;2.23;;;6.40;99.90;;;;;;5019360;28;20442;-62
2023/10/16 08:16:25;;;;;;;3.63;1.63;;;6.70;99.90;;;;;;5021141;28;20510;-62
2023/10/16 08:18:52;;;;;;;4.53;1.80;;;7.30;99.90;;;;;;5020707;28;20428;-62
2023/10/16 08:21:25;;;;;;;3.63;2.00;;;7.70;99.90;;;;;;5021025;28;20814;-63
2023/10/16 08:23:57;;;;;;;3.70;2.00;;;8.20;99.90;;;;;;5018956;28;20917;-63
2023/10/16 08:26:29;;;;;;;5.93;1.60;;;8.60;99.90;;;;;;5021724;28;20436;-63
2023/10/16 08:31:42;;;;;;;9.13;1.80;;;8.90;98.80;;;;;;5022379;28;20527;-62
2023/10/16 08:34:10;;;;;;;3.87;1.40;;;9.10;98.30;;;;;;5020089;28;20428;-62
2023/10/16 08:36:36;;;;;;;3.10;1.80;;;9.10;98.40;;;;;;5021381;28;20452;-63
2023/10/16 08:39:08;;;;;;;4.63;2.23;;;9.30;98.00;;;;;;5019979;28;20441;-63
2023/10/16 08:41:53;;;;;;;5.20;2.30;;;9.40;97.70;;;;;;5019271;28;20480;-63
2023/10/16 08:44:21;;;;;;;6.17;2.70;;;9.60;97.70;;;;;;5019450;28;20460;-63
2023/10/16 08:49:24;;;;;;;5.13;2.43;;;9.90;97.00;;;;;;5019298;28;20432;-62
2023/10/16 08:51:52;;;;;;;2.37;1.60;;;9.70;97.50;;;;;;5019121;28;20452;-62
2023/10/16 08:57:06;;;;;;;6.80;1.93;;;9.60;97.30;;;;;;5020247;28;20530;-62
2023/10/16 08:59:33;;;;;;;8.80;1.80;;;9.00;97.80;;;;;;5020591;28;20433;-62
2023/10/16 09:02:01;;;;;;;4.40;2.20;;;8.80;97.90;;;;;;5019795;28;20579;-62
2023/10/16 09:04:27;;;;;;;3.70;1.90;;;8.60;98.60;;;;;;5019274;28;20436;-62
2023/10/16 09:06:54;;;;;;;4.17;1.73;;;8.40;98.70;;;;;;5019419;28;20887;-63
2023/10/16 09:09:20;;;;;;;6.17;1.47;;;8.30;99.60;;;;;;5020219;28;20925;-64
2023/10/16 09:11:50;;;;;;;3.87;1.43;;;8.10;99.50;;;;;;5022040;28;20437;-64
2023/10/16 09:14:20;;;;;;;5.97;1.93;;;7.90;99.90;;;;;;5019968;28;20498;-62
2023/10/16 09:16:55;;;;;;;3.20;1.57;;;7.90;99.90;;;;;;5017997;28;20479;-62
2023/10/16 09:19:32;;;;;;;3.87;1.00;;;7.70;99.90;;;;;;5020071;28;20512;-61
2023/10/16 09:21:58;;;;;;;4.80;2.10;;;7.80;99.90;;;;;;5019521;28;20579;-61
2023/10/16 09:24:24;;;;;;;5.73;1.87;;;7.80;99.90;;;;;;5018131;28;20445;-61
2023/10/16 09:26:54;;;;;;;2.83;1.50;;;7.90;99.90;;;;;;5019120;28;20210;-62
2023/10/16 09:29:34;;;;;;;2.90;1.20;;;7.90;99.70;;;;;;5021826;28;20528;-62
2023/10/16 09:32:02;;;;;;;5.63;1.70;;;7.60;99.80;;;;;;5020429;28;20438;-62
2023/10/16 09:34:28;;;;;;;4.67;1.70;;;7.60;99.90;;;;;;5019199;28;20445;-62
2023/10/16 09:39:40;;;;;;;2.50;1.30;;;7.60;99.90;;;;;;5018707;28;20332;-62
2023/10/16 09:42:11;;;;;;;4.10;1.67;;;7.70;99.90;;;;;;5018967;28;20472;-63
2023/10/16 09:44:44;;;;;;;3.03;1.00;;;7.80;99.90;;;;;;5019972;28;20921;-62
2023/10/16 09:47:25;;;;;;;1.73;1.20;;;7.90;99.80;;;;;;5021352;28;21459;-62
2023/10/16 09:50:01;;;;;;;3.63;1.40;;;8.10;99.80;;;;;;5017247;28;20434;-62
2023/10/16 09:52:31;;;;;;;3.00;1.50;;;8.10;99.50;;;;;;5016442;28;20502;-62
2023/10/16 09:54:58;;;;;;;4.37;1.53;;;8.20;99.20;;;;;;5021254;28;20464;-62
2023/10/16 09:57:30;;;;;;;2.33;1.30;;;8.30;98.90;;;;;;5018052;28;21187;-62
2023/10/16 10:00:23;;;;;;;2.67;1.60;;;8.40;98.70;;;;;;5018523;28;20451;-62
2023/10/16 10:02:51;;;;;;;3.43;1.60;;;8.50;98.90;;;;;;5018338;28;20500;-62
2023/10/16 10:05:21;;;;;;;11.73;1.30;;;8.60;99.50;;;;;;5019283;28;20430;-62
2023/10/16 10:07:47;;;;;;;4.97;1.37;;;8.80;97.80;;;;;;5018037;28;21025;-63
2023/10/16 10:13:33;;;;;;;2.80;1.50;;;8.90;98.00;;;;;;5020173;28;20659;-62
2023/10/16 10:15:57;;;;;;;5.10;1.73;;;9.10;97.90;;;;;;5020133;28;20429;-63
2023/10/16 10:18:42;;;;;;;4.30;1.20;;;9.30;97.60;;;;;;5019490;28;20499;-63
2023/10/16 10:21:18;;;;;;;2.27;1.27;;;9.40;97.10;;;;;;5018970;28;20417;-62
2023/10/16 10:23:47;;;;;;;4.00;1.27;;;9.40;97.10;;;;;;5017296;28;20524;-62
2023/10/16 10:26:18;;;;;;;2.53;1.17;;;9.70;96.80;;;;;;5019215;28;20424;-62
2023/10/16 10:28:45;;;;;;;1.80;1.00;;;9.60;95.90;;;;;;5023515;28;20461;-62
2023/10/16 10:31:14;;;;;;;7.20;1.50;;;9.70;96.60;;;;;;5022746;28;20428;-63
2023/10/16 10:33:52;;;;;;;2.10;1.37;;;10.00;96.40;;;;;;5023815;28;20437;-62
2023/10/16 10:36:39;;;;;;;2.60;1.10;;;10.10;95.80;;;;;;5025115;28;20477;-62
2023/10/16 10:42:03;;;;;;;3.57;1.47;;;10.30;94.20;;;;;;5022789;28;20473;-63
2023/10/16 10:44:44;;;;;;;3.10;1.40;;;10.30;94.40;;;;;;5023724;28;20428;-65
2023/10/16 10:47:30;;;;;;;3.80;1.77;;;10.30;95.20;;;;;;5022135;28;20862;-64
2023/10/16 10:49:59;;;;;;;3.70;0.90;;;10.20;94.70;;;;;;5023256;28;21007;-64
2023/10/16 10:52:27;;;;;;;2.37;1.20;;;10.50;93.70;;;;;;5022933;28;20421;-66
2023/10/16 10:54:58;;;;;;;2.80;1.50;;;10.50;93.60;;;;;;5024124;28;20503;-65
2023/10/16 10:57:24;;;;;;;1.60;0.80;;;10.40;94.00;;;;;;5019976;28;20488;-65
2023/10/16 11:00:22;;;;;;;2.40;0.93;;;10.60;94.10;;;;;;5023870;28;20425;-65
2023/10/16 11:02:52;;;;;;;2.53;1.50;;;11.00;94.10;;;;;;5020405;28;20542;-65
2023/10/16 11:05:25;;;;;;;2.80;1.20;;;11.30;92.50;;;;;;5024046;28;20505;-65
2023/10/16 11:10:44;;;;;;;1.60;0.87;;;11.20;92.20;;;;;;5021004;28;20424;-65
2023/10/16 11:13:15;;;;;;;1.57;0.80;;;11.20;92.30;;;;;;5022124;28;20433;-65
2023/10/16 11:15:56;;;;;;;3.63;1.23;;;11.30;92.50;;;;;;5021845;28;21049;-65
2023/10/16 11:18:26;;;;;;;4.43;1.07;;;11.50;91.90;;;;;;5021517;28;20475;-65
2023/10/16 11:20:54;;;;;;;4.17;0.90;;;11.60;91.50;;;;;;5021519;28;20465;-65
2023/10/16 11:23:31;;;;;;;2.67;1.23;;;11.50;91.70;;;;;;5021580;28;20505;-65
2023/10/16 11:25:58;;;;;;;2.30;1.10;;;11.30;91.60;;;;;;5021640;28;20429;-65
2023/10/16 11:28:28;;;;;;;4.67;1.20;;;11.20;91.90;;;;;;5020382;28;20421;-65
2023/10/16 11:30:57;;;;;;;6.30;1.43;;;11.30;91.80;;;;;;5022949;28;20424;-65
2023/10/16 11:33:26;;;;;;;4.17;1.20;;;11.30;92.70;;;;;;5022694;28;20456;-65
2023/10/16 11:35:55;;;;;;;2.40;1.03;;;11.50;91.90;;;;;;5020725;28;20608;-64
2023/10/16 11:38:29;;;;;;;4.23;1.13;;;11.40;90.90;;;;;;5021898;28;20464;-64
2023/10/16 11:40:57;;;;;;;1.87;0.83;;;11.70;91.10;;;;;;5022069;28;20456;-64
2023/10/16 11:43:23;;;;;;;3.30;1.20;;;11.40;90.70;;;;;;5021764;28;20465;-64
2023/10/16 11:45:56;;;;;;;2.23;1.03;;;11.60;90.80;;;;;;5020269;28;20444;-65
2023/10/16 11:50:51;;;;;;;2.97;1.10;;;12.00;89.90;;;;;;5023427;28;20548;-65
2023/10/16 11:53:23;;;;;;;3.20;1.60;;;12.00;90.60;;;;;;5021280;28;20813;-65
2023/10/16 11:55:50;;;;;;;3.50;1.60;;;12.20;90.10;;;;;;5022995;28;20480;-65
2023/10/16 11:58:16;;;;;;;8.33;1.53;;;12.40;90.20;;;;;;5021762;28;20468;-64
2023/10/16 12:00:53;;;;;;;3.10;1.50;;;12.40;89.20;;;;;;5022308;28;20433;-65
2023/10/16 12:03:19;;;;;;;5.03;1.43;;;12.60;88.70;;;;;;5021188;28;20468;-65
2023/10/16 12:05:45;;;;;;;4.90;1.27;;;12.20;88.00;;;;;;5022793;28;20429;-65
2023/10/16 12:08:10;;;;;;;1.40;0.87;;;12.20;90.90;;;;;;5022387;28;20517;-65
2023/10/16 12:10:36;;;;;;;3.93;1.40;;;12.30;89.80;;;;;;5021357;28;20456;-65
2023/10/16 12:13:03;;;;;;;2.67;1.23;;;12.40;89.70;;;;;;5021802;28;20715;-65
2023/10/16 12:15:29;;;;;;;1.80;1.00;;;12.30;89.20;;;;;;5020885;28;21569;-65
2023/10/16 12:17:55;;;;;;;2.43;1.50;;;12.40;88.70;;;;;;5020891;28;20441;-65
2023/10/16 12:20:27;;;;;;;3.87;1.30;;;12.50;87.50;;;;;;5022018;28;20783;-65
2023/10/16 12:22:54;;;;;;;3.27;1.30;;;12.20;88.70;;;;;;5020241;28;21627;-65
2023/10/16 12:25:21;;;;;;;3.23;1.10;;;12.30;88.60;;;;;;5019946;28;20555;-65
2023/10/16 12:27:48;;;;;;;3.13;1.20;;;12.30;87.80;;;;;;5020742;28;20433;-65
2023/10/16 12:30:14;;;;;;;4.30;1.30;;;12.30;89.60;;;;;;5020060;28;20440;-65
2023/10/16 12:32:40;;;;;;;2.77;1.23;;;12.50;89.20;;;;;;5019485;28;20437;-64
2023/10/16 12:35:08;;;;;;;4.63;1.27;;;12.70;88.00;;;;;;5020732;28;20426;-64
2023/10/16 12:37:34;;;;;;;3.27;1.50;;;12.80;87.30;;;;;;5020629;28;20487;-65
2023/10/16 12:40:24;;;;;;;3.30;1.00;;;12.20;88.40;;;;;;5019945;28;20433;-64
2023/10/16 12:42:45;;;;;;;2.50;1.13;;;12.30;89.00;;;;;;5020503;28;21863;-64
2023/10/16 12:45:11;;;;;;;3.17;1.10;;;12.50;88.40;;;;;;5021016;28;20437;-64
2023/10/16 12:47:37;;;;;;;2.80;1.13;;;12.50;86.60;;;;;;5017410;28;20315;-67
2023/10/16 12:50:05;;;;;;;1.60;1.00;;;12.30;87.10;;;;;;5018340;28;20428;-67
2023/10/16 12:52:31;;;;;;;8.03;1.10;;;12.40;87.30;;;;;;5019079;28;20456;-67
2023/10/16 12:55:00;;;;;;;2.17;1.33;;;12.30;88.10;;;;;;5019582;28;20941;-67
2023/10/16 12:57:27;;;;;;;3.30;1.77;;;12.50;85.90;;;;;;5021285;28;20578;-67
2023/10/16 12:59:56;;;;;;;2.27;1.23;;;12.30;86.50;;;;;;5018783;28;20520;-66
2023/10/16 13:02:25;;;;;;;4.57;1.30;;;12.20;87.20;;;;;;5020412;28;20464;-67
2023/10/16 13:04:51;;;;;;;4.23;1.20;;;12.20;85.70;;;;;;5019542;28;20440;-67
2023/10/16 13:07:17;;;;;;;2.73;1.03;;;12.20;85.70;;;;;;5018095;28;20437;-66
2023/10/16 13:09:43;;;;;;;3.43;1.10;;;12.20;86.30;;;;;;5018538;28;20430;-66
2023/10/16 13:12:10;;;;;;;2.73;1.00;;;12.10;85.90;;;;;;5016671;28;20187;-67
2023/10/16 13:14:36;;;;;;;2.23;1.27;;;12.10;86.80;;;;;;5021275;28;21082;-67
2023/10/16 13:17:08;;;;;;;2.57;1.20;;;12.00;86.70;;;;;;5020082;28;20433;-67
2023/10/16 13:19:34;;;;;;;2.10;1.13;;;12.10;87.00;;;;;;5020847;28;20990;-67
2023/10/16 13:22:07;;;;;;;1.83;0.80;;;12.10;88.10;;;;;;5019343;28;20844;-67
2023/10/16 13:24:35;;;;;;;2.10;1.00;;;12.00;85.90;;;;;;5017941;28;20509;-63
2023/10/16 13:27:00;;;;;;;1.73;0.90;;;12.10;86.50;;;;;;5011516;28;20431;-62
2023/10/16 13:29:26;;;;;;;4.73;1.57;;;12.20;86.20;;;;;;5010945;28;20902;-62
2023/10/16 13:31:56;;;;;;;2.40;1.17;;;12.00;85.60;;;;;;5010699;28;20283;-62
2023/10/16 13:34:21;;;;;;;1.30;0.80;;;12.10;85.90;;;;;;5010991;28;20182;-61
2023/10/16 13:36:56;;;;;;;1.83;1.03;;;12.00;85.00;;;;;;5011789;28;20441;-64
2023/10/16 13:39:25;;;;;;;8.43;1.10;;;12.10;85.10;;;;;;5011011;28;20217;-61
2023/10/16 13:41:51;;;;;;;2.27;1.00;;;12.30;85.10;;;;;;5007430;28;20828;-61
2023/10/16 13:44:24;;;;;;;2.50;1.00;;;12.30;84.80;;;;;;5004489;28;20441;-61
2023/10/16 13:46:51;;;;;;;7.33;1.07;;;12.30;83.70;;;;;;5006221;28;20464;-61
2023/10/16 13:49:18;;;;;;;1.80;1.00;;;12.30;83.50;;;;;;5003789;28;20451;-62
2023/10/16 13:51:44;;;;;;;5.77;1.20;;;12.30;82.20;;;;;;4999435;28;20925;-62
2023/10/16 13:54:13;;;;;;;3.50;1.30;;;12.00;83.50;;;;;;4998657;28;20428;-62
2023/10/16 13:56:45;;;;;;;3.97;1.60;;;12.10;84.00;;;;;;5008494;28;20425;-62
2023/10/16 13:59:11;;;;;;;3.43;0.97;;;12.20;82.70;;;;;;5007837;28;21008;-62
2023/10/16 14:01:43;;;;;;;1.60;0.90;;;12.10;82.40;;;;;;5006488;28;20452;-62
2023/10/16 14:04:15;;;;;;;6.10;1.13;;;12.00;82.90;;;;;;5007468;28;20460;-62
2023/10/16 14:06:43;;;;;;;4.53;1.30;;;11.90;83.30;;;;;;5007479;28;20436;-61
2023/10/16 14:09:27;;;;;;;1.30;0.60;;;11.90;82.90;;;;;;5006952;28;20523;-61
2023/10/16 14:11:58;;;;;;;2.17;1.00;;;11.90;81.60;;;;;;5011754;28;20440;-62
2023/10/16 14:14:26;;;;;;;2.10;0.90;;;11.90;81.30;;;;;;5013939;28;20583;-61
2023/10/16 14:16:53;;;;;;;2.07;1.07;;;11.90;80.60;;;;;;5012786;28;20433;-61
2023/10/16 14:19:23;;;;;;;3.50;0.77;;;12.00;81.30;;;;;;5013064;28;20525;-62
2023/10/16 14:21:51;;;;;;;3.83;0.90;;;11.90;81.00;;;;;;5018886;28;20444;-62
2023/10/16 14:24:22;;;;;;;2.10;0.90;;;11.90;80.40;;;;;;5018844;28;21012;-62
2023/10/16 14:26:49;;;;;;;1.40;0.70;;;11.90;79.20;;;;;;5018534;28;20452;-62
2023/10/16 14:29:16;;;;;;;1.30;0.70;;;11.90;80.00;;;;;;5018864;28;20430;-62
2023/10/16 14:31:46;;;;;;;2.90;0.87;;;12.00;78.60;;;;;;5018626;28;20566;-61
2023/10/16 14:34:17;;;;;;;2.23;0.83;;;12.00;80.70;;;;;;5018307;28;20456;-62
2023/10/16 14:36:46;;;;;;;1.70;0.70;;;12.00;80.00;;;;;;5018896;28;20511;-62
2023/10/16 14:39:12;;;;;;;2.10;0.90;;;12.00;79.10;;;;;;5017524;28;21285;-62
2023/10/16 14:41:41;;;;;;;1.67;0.60;;;11.90;77.90;;;;;;5019637;28;20437;-62
2023/10/16 14:44:10;;;;;;;1.50;0.73;;;11.80;79.80;;;;;;5017506;28;20433;-61